Time;durP1;ratioP1;P1;durP2;ratioP2;P2;SDS_P1;SDS_P2;PMS_P1;PMS_P2;Temp;Humidity;BMP_temperature;BMP_pressure;BME280_temperature;BME280_humidity;BME280_pressure;Samples;Min_cycle;Max_cycle;Signal;HPM_P1;HPM_P2
2023/03/18 00:02:15;;;;;;;28.58;25.85;;;11.40;99.90;;;;;;5086937;28;21008;-91
2023/03/18 00:04:41;;;;;;;29.30;26.52;;;11.20;99.90;;;;;;5086796;28;20489;-91
2023/03/18 00:07:07;;;;;;;28.77;25.98;;;11.20;99.90;;;;;;5086771;28;20421;-92
2023/03/18 00:09:32;;;;;;;29.17;26.45;;;11.20;99.90;;;;;;5087155;28;20398;-91
2023/03/18 00:11:58;;;;;;;27.63;24.93;;;11.10;99.90;;;;;;5087364;28;20414;-91
2023/03/18 00:14:24;;;;;;;27.52;24.73;;;11.10;99.90;;;;;;5087073;28;20432;-92
2023/03/18 00:16:49;;;;;;;28.33;25.73;;;11.10;99.90;;;;;;5086889;28;20402;-90
2023/03/18 00:19:16;;;;;;;26.95;24.40;;;11.00;99.90;;;;;;5086939;28;20406;-91
2023/03/18 00:21:42;;;;;;;27.88;25.17;;;11.00;99.90;;;;;;5086733;28;20491;-91
2023/03/18 00:24:08;;;;;;;28.33;25.52;;;11.00;99.90;;;;;;5086457;28;20901;-91
2023/03/18 00:26:34;;;;;;;25.83;23.33;;;11.00;99.90;;;;;;5086605;28;20402;-91
2023/03/18 00:29:00;;;;;;;25.23;22.63;;;11.10;99.90;;;;;;5069724;28;20946;-92
2023/03/18 00:31:27;;;;;;;24.50;22.10;;;11.00;99.90;;;;;;5087045;28;20398;-91
2023/03/18 00:33:53;;;;;;;24.40;22.00;;;11.00;99.90;;;;;;5086480;28;20508;-92
2023/03/18 00:36:24;;;;;;;27.05;23.88;;;10.90;99.90;;;;;;5086865;28;20881;-91
2023/03/18 00:38:56;;;;;;;24.27;21.83;;;10.90;99.90;;;;;;5086508;28;20410;-91
2023/03/18 00:41:36;;;;;;;22.30;19.90;;;10.90;99.90;;;;;;5086149;28;20434;-91
2023/03/18 00:44:03;;;;;;;20.25;18.25;;;10.90;99.90;;;;;;5086181;28;20417;-92
2023/03/18 00:46:31;;;;;;;21.73;19.52;;;11.00;99.90;;;;;;5086548;28;20397;-91
2023/03/18 00:49:00;;;;;;;21.25;18.60;;;11.00;99.90;;;;;;5086680;28;20481;-91
2023/03/18 00:51:28;;;;;;;20.75;18.55;;;11.20;99.90;;;;;;5086782;28;20402;-92
2023/03/18 00:53:56;;;;;;;20.80;18.70;;;11.30;99.90;;;;;;5086202;28;20418;-91
2023/03/18 00:56:25;;;;;;;21.80;19.60;;;11.00;99.90;;;;;;5086231;28;20398;-91
2023/03/18 00:58:52;;;;;;;21.02;18.85;;;11.20;99.90;;;;;;5086063;28;20927;-91
2023/03/18 01:01:19;;;;;;;21.60;19.40;;;11.00;99.90;;;;;;5086041;28;20398;-90
2023/03/18 01:03:46;;;;;;;21.48;19.27;;;11.00;99.90;;;;;;5086011;28;20402;-90
2023/03/18 01:06:16;;;;;;;21.92;19.73;;;10.90;99.90;;;;;;5085974;28;20394;-91
2023/03/18 01:08:42;;;;;;;22.30;19.70;;;10.90;99.90;;;;;;5085665;28;20405;-90
2023/03/18 01:11:09;;;;;;;22.15;19.85;;;10.80;99.90;;;;;;5086236;28;20402;-91
2023/03/18 01:13:36;;;;;;;23.02;20.73;;;10.90;99.90;;;;;;5085522;28;20426;-91
2023/03/18 01:16:02;;;;;;;23.13;20.73;;;11.10;99.90;;;;;;5085582;28;20396;-91
2023/03/18 01:18:29;;;;;;;23.10;20.80;;;10.70;99.90;;;;;;5068854;28;20410;-92
2023/03/18 01:20:55;;;;;;;24.27;21.80;;;10.80;99.90;;;;;;5069214;28;20761;-91
2023/03/18 01:23:21;;;;;;;25.30;22.23;;;10.70;99.90;;;;;;5086096;28;20420;-91
2023/03/18 01:25:47;;;;;;;26.30;23.55;;;10.60;99.90;;;;;;5069270;28;20430;-91
2023/03/18 01:28:13;;;;;;;28.02;24.92;;;10.50;99.90;;;;;;5085451;28;20412;-91
2023/03/18 01:30:39;;;;;;;29.33;26.17;;;10.40;99.90;;;;;;5068633;28;20501;-92
2023/03/18 01:33:08;;;;;;;28.48;25.63;;;10.70;99.90;;;;;;5085115;28;20471;-92
2023/03/18 01:35:35;;;;;;;31.58;28.30;;;10.30;99.90;;;;;;5085570;28;20398;-90
2023/03/18 01:38:04;;;;;;;32.13;28.85;;;10.40;99.90;;;;;;5085651;28;20446;-90
2023/03/18 01:40:32;;;;;;;31.38;28.33;;;10.20;99.90;;;;;;5085373;28;20447;-91
2023/03/18 01:43:11;;;;;;;32.83;29.65;;;10.10;99.90;;;;;;5085549;28;20763;-91
2023/03/18 01:45:37;;;;;;;34.13;30.67;;;10.00;99.90;;;;;;5085551;28;20766;-91
2023/03/18 01:48:04;;;;;;;35.65;32.08;;;9.90;99.90;;;;;;5084818;28;20428;-90
2023/03/18 01:50:32;;;;;;;36.50;32.90;;;9.90;99.90;;;;;;5084809;28;20423;-91
2023/03/18 01:53:08;;;;;;;36.80;32.80;;;9.80;99.90;;;;;;5084816;28;20406;-90
2023/03/18 01:55:35;;;;;;;34.92;31.52;;;9.80;99.90;;;;;;5085006;28;20520;-92
2023/03/18 01:58:06;;;;;;;37.10;33.38;;;9.70;99.90;;;;;;5084784;28;20406;-90
2023/03/18 02:00:35;;;;;;;36.40;32.67;;;9.60;99.90;;;;;;5084793;28;20401;-91
2023/03/18 02:03:00;;;;;;;37.97;34.35;;;9.60;99.90;;;;;;5085311;28;20398;-90
2023/03/18 02:05:28;;;;;;;37.15;33.25;;;9.60;99.90;;;;;;5067886;28;20437;-90
2023/03/18 02:07:54;;;;;;;38.50;34.70;;;9.50;99.90;;;;;;5084627;28;20455;-91
2023/03/18 02:10:28;;;;;;;37.58;33.88;;;9.50;99.90;;;;;;5067108;28;20390;-90
2023/03/18 02:13:06;;;;;;;38.72;34.88;;;9.50;99.90;;;;;;5085040;28;20421;-90
2023/03/18 02:15:34;;;;;;;39.50;35.50;;;9.40;99.90;;;;;;5085189;28;20450;-91
2023/03/18 02:18:07;;;;;;;39.70;35.70;;;9.40;99.90;;;;;;5068429;28;20951;-91
2023/03/18 02:20:59;;;;;;;37.10;33.38;;;9.30;99.90;;;;;;5067796;28;20407;-92
2023/03/18 02:24:00;;;;;;;40.60;36.38;;;9.20;99.90;;;;;;5067897;28;20760;-91
2023/03/18 02:26:53;;;;;;;40.85;36.75;;;9.20;99.90;;;;;;5067945;28;20501;-90
2023/03/18 02:29:20;;;;;;;39.78;35.58;;;9.10;99.90;;;;;;5067731;28;20484;-92
2023/03/18 02:31:47;;;;;;;38.53;34.40;;;9.00;99.90;;;;;;5084587;28;20402;-91
2023/03/18 02:34:14;;;;;;;43.25;38.95;;;9.00;99.90;;;;;;5084391;28;20418;-89
2023/03/18 02:36:40;;;;;;;47.40;42.65;;;8.90;99.90;;;;;;5067466;28;20390;-90
2023/03/18 02:39:06;;;;;;;50.30;45.08;;;8.90;99.90;;;;;;5084582;28;20402;-90
2023/03/18 02:41:34;;;;;;;48.85;43.80;;;8.80;99.90;;;;;;5084684;28;20394;-91
2023/03/18 02:44:00;;;;;;;53.17;47.47;;;8.80;99.90;;;;;;5084719;28;20405;-90
2023/03/18 02:46:45;;;;;;;49.93;44.63;;;8.70;99.90;;;;;;5084476;28;20386;-90
2023/03/18 02:49:11;;;;;;;47.25;42.15;;;8.70;99.90;;;;;;5067826;28;20978;-91
2023/03/18 02:51:38;;;;;;;55.25;49.40;;;8.60;99.90;;;;;;5084635;28;20406;-91
2023/03/18 02:54:16;;;;;;;57.28;51.25;;;8.60;99.90;;;;;;5084349;28;20433;-90
2023/03/18 02:56:42;;;;;;;56.55;50.65;;;8.50;99.90;;;;;;5085027;28;20799;-92
2023/03/18 02:59:09;;;;;;;57.22;51.22;;;8.50;99.90;;;;;;5084408;28;20440;-90
2023/03/18 03:01:37;;;;;;;55.38;49.28;;;8.90;99.90;;;;;;5084094;28;20394;-91
2023/03/18 03:04:05;;;;;;;52.90;47.45;;;8.40;99.90;;;;;;5084069;28;20441;-91
2023/03/18 03:06:31;;;;;;;61.75;55.25;;;8.30;99.90;;;;;;5083892;28;20395;-91
2023/03/18 03:08:59;;;;;;;61.45;54.92;;;8.30;99.90;;;;;;5084420;28;20899;-91
2023/03/18 03:11:25;;;;;;;60.85;54.38;;;8.30;99.90;;;;;;5084070;28;20394;-89
2023/03/18 03:13:52;;;;;;;60.22;53.70;;;8.20;99.90;;;;;;5084589;28;20434;-91
2023/03/18 03:16:18;;;;;;;58.60;52.28;;;8.20;99.90;;;;;;5084471;28;20402;-91
2023/03/18 03:18:44;;;;;;;59.40;52.97;;;8.20;99.90;;;;;;5084125;28;20536;-91
2023/03/18 03:21:11;;;;;;;62.80;56.10;;;8.20;99.90;;;;;;5085737;28;20504;-91
2023/03/18 03:23:37;;;;;;;59.92;53.45;;;8.10;99.90;;;;;;5087543;28;20405;-91
2023/03/18 03:26:04;;;;;;;61.47;55.00;;;8.10;99.90;;;;;;5087755;28;20410;-91
2023/03/18 03:28:31;;;;;;;67.57;59.37;;;8.10;99.90;;;;;;5087659;28;20390;-91
2023/03/18 03:30:57;;;;;;;67.78;60.33;;;8.10;99.90;;;;;;5088070;28;20893;-91
2023/03/18 03:33:24;;;;;;;70.53;60.67;;;8.20;99.90;;;;;;5087770;28;20426;-91
2023/03/18 03:35:50;;;;;;;64.07;57.08;;;8.10;99.90;;;;;;5087710;28;20463;-91
2023/03/18 03:38:15;;;;;;;63.15;56.25;;;8.30;99.90;;;;;;5087501;28;20987;-90
2023/03/18 03:40:41;;;;;;;71.05;61.40;;;8.10;99.90;;;;;;5070373;28;20755;-91
2023/03/18 03:43:07;;;;;;;67.83;60.10;;;8.10;99.90;;;;;;5070536;28;20406;-91
2023/03/18 03:45:33;;;;;;;71.25;63.38;;;8.10;99.90;;;;;;5087293;28;20468;-92
2023/03/18 03:47:59;;;;;;;70.20;60.40;;;8.30;99.90;;;;;;5070613;28;20402;-91
2023/03/18 03:50:25;;;;;;;71.88;61.30;;;8.20;99.90;;;;;;5070293;28;20400;-91
2023/03/18 03:52:51;;;;;;;73.97;62.03;;;8.20;99.90;;;;;;5087475;28;20489;-90
2023/03/18 03:55:19;;;;;;;68.43;58.22;;;8.20;99.90;;;;;;5070759;28;20432;-90
2023/03/18 03:57:46;;;;;;;74.43;62.53;;;8.20;99.90;;;;;;5087362;28;20497;-91
2023/03/18 04:00:19;;;;;;;68.95;59.92;;;8.20;99.90;;;;;;5070089;28;20454;-91
2023/03/18 04:02:45;;;;;;;70.77;61.73;;;8.20;99.90;;;;;;5087014;28;20426;-89
2023/03/18 04:05:13;;;;;;;70.85;60.35;;;8.20;99.90;;;;;;5086761;28;20916;-91
2023/03/18 04:07:40;;;;;;;72.53;61.28;;;8.20;99.90;;;;;;5086860;28;20485;-91
2023/03/18 04:10:08;;;;;;;78.97;63.70;;;8.20;99.90;;;;;;5087472;28;20405;-91
2023/03/18 04:12:34;;;;;;;82.85;64.10;;;8.20;99.90;;;;;;5087012;28;20436;-90
2023/03/18 04:15:00;;;;;;;77.97;62.63;;;8.50;99.90;;;;;;5086772;28;20430;-90
2023/03/18 04:17:26;;;;;;;80.32;61.63;;;8.20;99.90;;;;;;5070013;28;20409;-90
2023/03/18 04:19:52;;;;;;;78.28;63.40;;;8.40;99.90;;;;;;5070110;28;20406;-92
2023/03/18 04:22:18;;;;;;;80.38;63.70;;;8.20;99.90;;;;;;5087033;28;21061;-91
2023/03/18 04:24:43;;;;;;;86.50;64.50;;;8.40;99.90;;;;;;5086353;28;20484;-92
2023/03/18 04:27:10;;;;;;;86.20;64.17;;;8.20;99.90;;;;;;5086595;28;20489;-91
2023/03/18 04:29:36;;;;;;;86.07;63.38;;;8.20;99.90;;;;;;5070051;28;20421;-91
2023/03/18 04:32:02;;;;;;;89.18;64.72;;;8.20;99.90;;;;;;5086479;28;20402;-90
2023/03/18 04:34:28;;;;;;;88.85;63.83;;;8.20;99.90;;;;;;5086707;28;20943;-91
2023/03/18 04:36:54;;;;;;;93.22;64.97;;;8.30;99.90;;;;;;5086304;28;20405;-91
2023/03/18 04:39:21;;;;;;;97.50;64.32;;;8.10;99.90;;;;;;5086364;28;20394;-91
2023/03/18 04:41:46;;;;;;;98.43;64.55;;;8.30;99.90;;;;;;5086286;28;20485;-92
2023/03/18 04:44:12;;;;;;;113.03;67.75;;;8.00;99.90;;;;;;5086671;28;20508;-92
2023/03/18 04:46:39;;;;;;;130.20;67.65;;;8.30;99.90;;;;;;5086374;28;20406;-91
2023/03/18 04:49:05;;;;;;;160.88;68.22;;;8.40;99.90;;;;;;5086592;28;20807;-90
2023/03/18 04:51:30;;;;;;;165.93;64.28;;;8.50;99.90;;;;;;5069189;28;20390;-90
2023/03/18 04:53:56;;;;;;;182.05;63.70;;;8.60;99.90;;;;;;5085849;28;20426;-91
2023/03/18 04:56:22;;;;;;;197.93;66.60;;;8.60;99.90;;;;;;5086711;28;20406;-91
2023/03/18 04:58:48;;;;;;;182.38;62.72;;;8.70;99.90;;;;;;5085851;28;20435;-91
2023/03/18 05:01:14;;;;;;;195.18;64.47;;;8.80;99.90;;;;;;5086269;28;20838;-91
2023/03/18 05:03:40;;;;;;;190.98;62.90;;;8.90;99.90;;;;;;5085722;28;20425;-91
2023/03/18 05:06:08;;;;;;;159.55;61.38;;;8.70;99.90;;;;;;5086695;28;20441;-91
2023/03/18 05:08:34;;;;;;;199.43;65.07;;;8.90;99.90;;;;;;5085949;28;20762;-91
2023/03/18 05:10:59;;;;;;;183.20;61.93;;;8.90;99.90;;;;;;5086321;28;20409;-91
2023/03/18 05:13:25;;;;;;;184.20;56.60;;;9.00;99.90;;;;;;5086069;28;20422;-93
2023/03/18 05:15:51;;;;;;;175.80;57.55;;;8.90;99.90;;;;;;5085828;28;20512;-92
2023/03/18 05:18:17;;;;;;;185.93;56.67;;;9.00;99.90;;;;;;5085233;28;20447;-91
2023/03/18 05:20:43;;;;;;;144.55;54.85;;;9.10;99.90;;;;;;5085592;28;20403;-90
2023/03/18 05:23:09;;;;;;;151.77;52.90;;;9.00;99.90;;;;;;5085703;28;20406;-91
2023/03/18 05:25:34;;;;;;;180.27;55.95;;;9.00;99.90;;;;;;5085397;28;20761;-91
2023/03/18 05:28:00;;;;;;;169.53;55.73;;;9.10;99.90;;;;;;5068677;28;20406;-90
2023/03/18 05:30:26;;;;;;;166.03;56.83;;;9.30;99.90;;;;;;5068767;28;20414;-91
2023/03/18 05:32:52;;;;;;;187.03;57.63;;;9.10;99.90;;;;;;5068593;28;20391;-90
2023/03/18 05:35:18;;;;;;;163.35;55.65;;;9.10;99.90;;;;;;5085755;28;21059;-91
2023/03/18 05:37:44;;;;;;;175.07;55.70;;;9.10;99.90;;;;;;5068561;28;20409;-91
2023/03/18 05:40:11;;;;;;;136.63;51.50;;;9.10;99.90;;;;;;5084967;28;20446;-91
2023/03/18 05:42:37;;;;;;;143.37;50.73;;;9.10;99.90;;;;;;5084996;28;20430;-91
2023/03/18 05:45:04;;;;;;;193.20;52.55;;;9.20;99.90;;;;;;5067795;28;20405;-92
2023/03/18 05:47:30;;;;;;;208.50;52.97;;;9.10;99.90;;;;;;5067689;28;20397;-91
2023/03/18 05:49:56;;;;;;;182.40;53.17;;;9.10;99.90;;;;;;5085422;28;20413;-91
2023/03/18 05:52:21;;;;;;;174.48;52.05;;;9.20;99.90;;;;;;5085496;28;20905;-91
2023/03/18 05:54:48;;;;;;;319.60;59.67;;;9.20;99.90;;;;;;5084773;28;20434;-90
2023/03/18 05:57:14;;;;;;;161.80;51.38;;;9.20;99.90;;;;;;5085329;28;20406;-90
2023/03/18 05:59:40;;;;;;;180.32;54.20;;;9.20;99.90;;;;;;5084810;28;20907;-92
2023/03/18 06:02:06;;;;;;;210.17;55.97;;;9.20;99.90;;;;;;5084938;28;20405;-91
2023/03/18 06:04:31;;;;;;;203.87;56.97;;;9.20;99.90;;;;;;5084650;28;20804;-91
2023/03/18 06:06:57;;;;;;;234.63;60.40;;;9.30;99.90;;;;;;5085094;28;20402;-91
2023/03/18 06:09:24;;;;;;;208.73;63.53;;;9.20;99.90;;;;;;5085050;28;20448;-91
2023/03/18 06:11:50;;;;;;;207.93;65.03;;;9.30;99.90;;;;;;5085079;28;20786;-91
2023/03/18 06:14:17;;;;;;;169.05;61.38;;;9.20;99.90;;;;;;5067688;28;20425;-91
2023/03/18 06:16:44;;;;;;;171.70;65.13;;;9.20;99.90;;;;;;5084458;28;20406;-93
2023/03/18 06:19:10;;;;;;;227.63;69.68;;;9.50;99.90;;;;;;5084507;28;20412;-91
2023/03/18 06:21:37;;;;;;;155.27;61.65;;;9.20;99.90;;;;;;5084824;28;20420;-90
2023/03/18 06:24:03;;;;;;;152.02;64.45;;;9.20;99.90;;;;;;5084887;28;20900;-90
2023/03/18 06:26:29;;;;;;;159.05;64.30;;;9.20;99.90;;;;;;5084886;28;20463;-90
2023/03/18 06:28:55;;;;;;;144.60;64.50;;;9.20;99.90;;;;;;5085396;28;20402;-91
2023/03/18 06:31:21;;;;;;;137.23;64.25;;;9.40;99.90;;;;;;5084644;28;20417;-91
2023/03/18 06:33:47;;;;;;;140.73;65.78;;;9.20;99.90;;;;;;5067355;28;20430;-91
2023/03/18 06:36:15;;;;;;;127.88;61.88;;;9.30;99.90;;;;;;5084650;28;20793;-92
2023/03/18 06:38:41;;;;;;;115.47;58.03;;;9.20;99.90;;;;;;5084738;28;20429;-91
2023/03/18 06:41:07;;;;;;;113.22;61.58;;;9.50;99.90;;;;;;5084447;28;20447;-93
2023/03/18 06:43:33;;;;;;;131.05;59.50;;;9.20;99.90;;;;;;5084618;28;20398;-91
2023/03/18 06:45:59;;;;;;;106.40;58.83;;;9.20;99.90;;;;;;5067814;28;20410;-91
2023/03/18 06:48:25;;;;;;;121.25;60.95;;;9.20;99.90;;;;;;5084936;28;20443;-91
2023/03/18 06:50:51;;;;;;;101.53;55.88;;;9.20;99.90;;;;;;5084626;28;20460;-91
2023/03/18 06:53:17;;;;;;;118.65;60.53;;;9.20;99.90;;;;;;5084595;28;20430;-92
2023/03/18 06:55:43;;;;;;;83.07;51.83;;;9.30;99.90;;;;;;5086408;28;20472;-92
2023/03/18 06:58:09;;;;;;;100.20;60.45;;;9.20;99.90;;;;;;5071400;28;20434;-91
2023/03/18 07:00:35;;;;;;;93.93;57.72;;;9.20;99.90;;;;;;5088390;28;20522;-91
2023/03/18 07:03:01;;;;;;;107.35;62.20;;;9.30;99.90;;;;;;5088837;28;20424;-91
2023/03/18 07:05:27;;;;;;;99.70;63.65;;;9.40;99.90;;;;;;5071434;28;20428;-91
2023/03/18 07:07:53;;;;;;;99.25;63.38;;;9.50;99.90;;;;;;5071676;28;20440;-91
2023/03/18 07:10:26;;;;;;;92.47;61.87;;;9.60;99.90;;;;;;5104845;28;20441;-91
2023/03/18 07:12:53;;;;;;;95.85;64.95;;;9.90;99.90;;;;;;5088161;28;20398;-91
2023/03/18 07:15:20;;;;;;;82.05;58.78;;;9.80;99.90;;;;;;5087815;28;20429;-92
2023/03/18 07:17:46;;;;;;;78.07;59.00;;;10.00;99.90;;;;;;5088090;28;20560;-92
2023/03/18 07:20:14;;;;;;;75.10;57.58;;;10.00;99.90;;;;;;5088070;28;20387;-91
2023/03/18 07:22:41;;;;;;;75.55;56.45;;;10.10;99.90;;;;;;5088202;28;20394;-91
2023/03/18 07:25:07;;;;;;;81.07;59.88;;;10.10;99.90;;;;;;5087728;28;20402;-91
2023/03/18 07:27:33;;;;;;;77.95;58.05;;;10.20;99.90;;;;;;5088110;28;20412;-91
2023/03/18 07:30:00;;;;;;;74.40;56.90;;;10.20;99.90;;;;;;5087953;28;20406;-91
2023/03/18 07:32:26;;;;;;;75.45;58.15;;;10.30;99.90;;;;;;5087638;28;20402;-91
2023/03/18 07:34:51;;;;;;;72.53;56.03;;;10.30;99.90;;;;;;5070337;28;20924;-90
2023/03/18 07:37:17;;;;;;;70.57;55.25;;;10.30;99.90;;;;;;5070581;28;20402;-92
2023/03/18 07:39:43;;;;;;;68.17;54.87;;;10.40;99.90;;;;;;5087725;28;20851;-91
2023/03/18 07:42:10;;;;;;;62.43;52.03;;;10.40;99.90;;;;;;5087982;28;20481;-91
2023/03/18 07:44:36;;;;;;;65.53;52.85;;;10.50;99.90;;;;;;5087886;28;20398;-91
2023/03/18 07:47:03;;;;;;;61.27;52.27;;;10.50;99.90;;;;;;5087917;28;20463;-91
2023/03/18 07:49:30;;;;;;;61.20;51.10;;;10.50;99.90;;;;;;5070586;28;20414;-91
2023/03/18 07:51:56;;;;;;;60.58;50.28;;;10.60;99.90;;;;;;5087303;28;20433;-92
2023/03/18 07:54:23;;;;;;;55.70;48.70;;;10.70;99.90;;;;;;5087429;28;20868;-92
2023/03/18 07:56:50;;;;;;;55.87;49.40;;;10.70;99.90;;;;;;5087746;28;20426;-91
2023/03/18 07:59:16;;;;;;;53.67;47.80;;;10.70;99.90;;;;;;5087705;28;20964;-89
2023/03/18 08:01:42;;;;;;;53.90;48.05;;;10.80;99.90;;;;;;5087702;28;20425;-92
2023/03/18 08:04:09;;;;;;;54.10;47.22;;;10.80;99.90;;;;;;5087102;28;20423;-92
2023/03/18 08:06:35;;;;;;;51.08;44.67;;;10.90;99.90;;;;;;5086133;28;20413;-91
2023/03/18 08:09:02;;;;;;;49.50;44.30;;;10.90;99.90;;;;;;5087303;28;20399;-93
2023/03/18 08:11:28;;;;;;;47.43;42.30;;;11.00;99.90;;;;;;5087233;28;20481;-91
2023/03/18 08:13:53;;;;;;;49.50;44.13;;;11.00;99.90;;;;;;5069776;28;20517;-92
2023/03/18 08:16:19;;;;;;;47.70;42.65;;;11.10;99.90;;;;;;5087335;28;20950;-92
2023/03/18 08:18:44;;;;;;;48.30;43.20;;;11.30;99.90;;;;;;5087366;28;20463;-91
2023/03/18 08:21:10;;;;;;;48.00;43.03;;;11.20;99.90;;;;;;5087099;28;20501;-92
2023/03/18 08:23:36;;;;;;;46.92;42.03;;;11.20;99.90;;;;;;5086565;28;20950;-91
2023/03/18 08:26:02;;;;;;;45.25;40.50;;;11.30;99.90;;;;;;5103956;28;20398;-91
2023/03/18 08:28:28;;;;;;;45.17;40.40;;;11.30;99.90;;;;;;5086555;28;20398;-92
2023/03/18 08:30:58;;;;;;;45.60;40.90;;;11.40;99.90;;;;;;5086588;28;20410;-91
2023/03/18 08:33:25;;;;;;;43.53;39.10;;;11.50;99.90;;;;;;5086303;28;20425;-91
2023/03/18 08:35:52;;;;;;;44.40;39.53;;;11.50;99.90;;;;;;5086339;28;20901;-90
2023/03/18 08:38:18;;;;;;;44.67;40.15;;;11.60;99.90;;;;;;5087064;28;20410;-90
2023/03/18 08:40:45;;;;;;;45.33;40.67;;;11.60;99.90;;;;;;5086522;28;20394;-90
2023/03/18 08:43:11;;;;;;;44.42;39.85;;;11.70;99.90;;;;;;5086112;28;20920;-92
2023/03/18 08:45:36;;;;;;;44.13;39.50;;;11.70;99.90;;;;;;5086263;28;20398;-91
2023/03/18 08:48:02;;;;;;;41.88;37.47;;;11.90;99.90;;;;;;5086167;28;20414;-91
2023/03/18 08:50:28;;;;;;;42.00;37.80;;;11.70;99.90;;;;;;5068959;28;20479;-91
2023/03/18 08:52:58;;;;;;;43.67;39.17;;;11.70;99.90;;;;;;5086411;28;20467;-91
2023/03/18 08:55:39;;;;;;;45.45;40.65;;;12.00;99.90;;;;;;5086313;28;20891;-91
2023/03/18 08:58:07;;;;;;;43.03;38.60;;;11.90;99.90;;;;;;5086168;28;20495;-91
2023/03/18 09:00:38;;;;;;;41.92;37.80;;;11.90;99.90;;;;;;5086149;28;20402;-92
2023/03/18 09:03:04;;;;;;;43.93;39.53;;;11.90;99.90;;;;;;5086026;28;20413;-92
2023/03/18 09:05:31;;;;;;;42.97;38.57;;;12.00;99.90;;;;;;5069033;28;20402;-91
2023/03/18 09:07:57;;;;;;;43.90;39.50;;;12.10;99.90;;;;;;5085839;28;20433;-91
2023/03/18 09:10:24;;;;;;;42.42;38.05;;;12.20;99.90;;;;;;5069010;28;20467;-91
2023/03/18 09:12:49;;;;;;;40.90;36.90;;;12.30;99.90;;;;;;5086152;28;20436;-91
2023/03/18 09:15:19;;;;;;;39.80;35.90;;;12.30;99.90;;;;;;5085474;28;20470;-90
2023/03/18 09:17:45;;;;;;;40.80;36.65;;;12.30;99.90;;;;;;5086196;28;20433;-91
2023/03/18 09:20:12;;;;;;;42.10;37.90;;;12.50;99.90;;;;;;5068654;28;20753;-91
2023/03/18 09:22:40;;;;;;;39.17;35.28;;;12.30;99.90;;;;;;5085748;28;20416;-91
2023/03/18 09:25:07;;;;;;;40.55;36.55;;;12.40;99.90;;;;;;5085214;28;20404;-91
2023/03/18 09:27:33;;;;;;;39.83;35.72;;;12.40;99.90;;;;;;5085514;28;20489;-91
2023/03/18 09:29:58;;;;;;;40.97;37.00;;;12.50;99.90;;;;;;5085675;28;20468;-92
2023/03/18 09:32:24;;;;;;;40.87;36.90;;;12.50;99.90;;;;;;5085571;28;20414;-89
2023/03/18 09:34:50;;;;;;;38.63;34.67;;;12.60;99.90;;;;;;5086030;28;20425;-91
2023/03/18 09:37:17;;;;;;;38.97;35.03;;;12.70;99.90;;;;;;5085580;28;20417;-92
2023/03/18 09:39:43;;;;;;;38.53;34.83;;;12.70;99.90;;;;;;5085283;28;20449;-93
2023/03/18 09:42:36;;;;;;;40.03;35.93;;;12.70;99.90;;;;;;5085090;28;20402;-89
2023/03/18 09:45:13;;;;;;;38.40;34.50;;;12.80;99.90;;;;;;5084973;28;20409;-91
2023/03/18 09:48:06;;;;;;;39.58;35.67;;;13.00;99.90;;;;;;5085741;28;20402;-93
2023/03/18 09:51:03;;;;;;;36.63;32.95;;;13.10;99.90;;;;;;5085109;28;20406;-91
2023/03/18 09:53:40;;;;;;;36.22;32.70;;;13.30;99.90;;;;;;5068047;28;20441;-90
2023/03/18 09:56:14;;;;;;;36.15;32.67;;;13.30;99.90;;;;;;5085396;28;20414;-92
2023/03/18 09:58:58;;;;;;;36.45;32.90;;;13.40;99.90;;;;;;5084903;28;20394;-90
2023/03/18 10:01:26;;;;;;;34.37;31.07;;;13.70;99.90;;;;;;5085382;28;20424;-91
2023/03/18 10:04:21;;;;;;;31.80;28.70;;;14.20;99.90;;;;;;5085000;28;20455;-91
2023/03/18 10:06:49;;;;;;;26.50;23.87;;;14.90;99.90;;;;;;5065310;28;20410;-91
2023/03/18 10:09:32;;;;;;;23.90;21.63;;;15.40;99.90;;;;;;5085204;28;20417;-91
2023/03/18 10:12:30;;;;;;;24.42;22.02;;;15.90;99.90;;;;;;5068350;28;20421;-91
2023/03/18 10:15:07;;;;;;;24.88;22.48;;;16.00;99.90;;;;;;5084957;28;20417;-91
2023/03/18 10:17:45;;;;;;;24.83;22.37;;;16.10;99.90;;;;;;5084785;28;20916;-92
2023/03/18 10:20:18;;;;;;;24.20;21.80;;;16.20;99.90;;;;;;5084743;28;20896;-92
2023/03/18 10:22:59;;;;;;;23.75;21.42;;;16.30;99.60;;;;;;5085662;28;20464;-91
2023/03/18 10:25:40;;;;;;;22.48;20.33;;;16.50;98.80;;;;;;5084480;28;20406;-91
2023/03/18 10:28:25;;;;;;;21.88;19.88;;;16.90;99.50;;;;;;5084794;28;20483;-92
2023/03/18 10:31:24;;;;;;;23.10;21.02;;;17.20;98.10;;;;;;5073068;28;20424;-92
2023/03/18 10:34:08;;;;;;;25.40;23.17;;;17.10;95.10;;;;;;5074804;28;20784;-91
2023/03/18 10:36:48;;;;;;;25.98;23.45;;;16.70;95.30;;;;;;5091204;28;20518;-92
2023/03/18 10:39:18;;;;;;;24.48;22.17;;;16.50;96.00;;;;;;5108366;28;20386;-91
2023/03/18 10:41:51;;;;;;;23.80;21.65;;;16.80;97.00;;;;;;5091332;28;20444;-92
2023/03/18 10:44:25;;;;;;;21.35;19.38;;;17.10;96.80;;;;;;5092184;28;20905;-91
2023/03/18 10:47:09;;;;;;;21.27;19.37;;;17.60;94.80;;;;;;5074867;28;20402;-93
2023/03/18 10:49:39;;;;;;;19.98;18.17;;;17.90;94.30;;;;;;5074789;28;20397;-93
2023/03/18 10:52:29;;;;;;;18.38;16.75;;;18.40;92.90;;;;;;5091376;28;20404;-91
2023/03/18 10:54:55;;;;;;;20.00;18.20;;;18.30;89.70;;;;;;5090768;28;20505;-92
2023/03/18 10:57:21;;;;;;;18.67;16.97;;;18.40;87.50;;;;;;5091707;28;20488;-91
2023/03/18 10:59:50;;;;;;;18.87;17.17;;;18.40;88.10;;;;;;5091324;28;20421;-91
2023/03/18 11:02:28;;;;;;;16.88;15.35;;;18.30;90.10;;;;;;5090955;28;20448;-91
2023/03/18 11:05:06;;;;;;;17.50;15.80;;;18.20;90.10;;;;;;5091260;28;20425;-90
2023/03/18 11:07:32;;;;;;;17.50;15.95;;;18.40;87.10;;;;;;5091022;28;20410;-93
2023/03/18 11:10:22;;;;;;;14.45;13.20;;;18.70;88.30;;;;;;5108470;28;20409;-92
2023/03/18 11:12:48;;;;;;;14.75;13.38;;;18.80;81.70;;;;;;5074294;28;20469;-93
2023/03/18 11:15:19;;;;;;;13.40;12.10;;;19.20;79.50;;;;;;5073793;28;20512;-93
2023/03/18 11:17:49;;;;;;;12.02;10.93;;;19.60;78.50;;;;;;5090646;28;22827;-91
2023/03/18 11:20:41;;;;;;;13.00;11.80;;;19.60;74.20;;;;;;5090976;28;20771;-92
2023/03/18 11:23:19;;;;;;;11.33;10.33;;;19.90;70.40;;;;;;5091765;28;20408;-92
2023/03/18 11:25:46;;;;;;;10.30;9.50;;;20.10;71.50;;;;;;5090728;28;20449;-93
2023/03/18 11:28:21;;;;;;;10.70;9.70;;;20.30;67.10;;;;;;5072816;28;20402;-92
2023/03/18 11:30:51;;;;;;;10.82;9.82;;;20.20;70.40;;;;;;5074163;28;20408;-92
2023/03/18 11:33:18;;;;;;;9.98;9.07;;;20.40;67.20;;;;;;5073499;28;20900;-92
2023/03/18 11:35:52;;;;;;;10.88;9.88;;;20.20;64.90;;;;;;5074103;28;20524;-91
2023/03/18 11:38:27;;;;;;;9.95;9.07;;;20.30;64.80;;;;;;5091045;28;20420;-92
2023/03/18 11:41:07;;;;;;;9.77;8.70;;;20.20;67.60;;;;;;5072916;28;20406;-93
2023/03/18 11:43:35;;;;;;;7.28;6.57;;;20.20;67.40;;;;;;5087321;28;20402;-93
2023/03/18 11:46:07;;;;;;;4.80;4.10;;;20.20;66.10;;;;;;5070606;28;20773;-93
2023/03/18 11:48:39;;;;;;;4.55;4.15;;;20.50;62.70;;;;;;5070811;28;20398;-93
2023/03/18 11:51:30;;;;;;;5.80;5.30;;;20.80;60.70;;;;;;5070212;28;20496;-92
2023/03/18 11:54:11;;;;;;;6.43;5.82;;;20.80;62.30;;;;;;5070708;28;20479;-92
2023/03/18 11:56:43;;;;;;;7.07;6.38;;;20.80;61.00;;;;;;5071036;28;20753;-92
2023/03/18 11:59:15;;;;;;;7.53;6.80;;;20.70;60.90;;;;;;5087551;28;20402;-92
2023/03/18 12:02:03;;;;;;;7.90;7.10;;;20.70;61.90;;;;;;5070840;28;20440;-92
2023/03/18 12:04:38;;;;;;;7.55;6.85;;;20.40;61.60;;;;;;5087492;28;20963;-92
2023/03/18 12:07:14;;;;;;;7.78;6.93;;;20.40;63.20;;;;;;5070026;28;20471;-92
2023/03/18 12:09:43;;;;;;;7.00;6.30;;;20.10;64.60;;;;;;5086998;28;20438;-92
2023/03/18 12:12:21;;;;;;;7.90;6.72;;;20.00;65.30;;;;;;5070199;28;20418;-92
2023/03/18 12:15:08;;;;;;;7.50;6.80;;;19.40;67.60;;;;;;5070667;28;20785;-92
2023/03/18 12:18:16;;;;;;;6.50;5.65;;;19.80;69.70;;;;;;5070370;28;20927;-93
2023/03/18 12:20:52;;;;;;;6.57;5.85;;;19.70;65.30;;;;;;5032721;28;20410;-93
2023/03/18 12:23:38;;;;;;;7.05;6.18;;;19.80;67.90;;;;;;5070585;28;20422;-92
2023/03/18 12:26:07;;;;;;;6.85;6.22;;;19.60;67.60;;;;;;5082283;28;20414;-92
2023/03/18 12:28:45;;;;;;;7.55;6.75;;;19.60;67.40;;;;;;5086874;28;20499;-92
2023/03/18 12:31:39;;;;;;;6.78;6.18;;;19.40;71.80;;;;;;5069778;28;20410;-93
2023/03/18 12:34:21;;;;;;;7.05;6.35;;;19.50;72.10;;;;;;5086331;28;20490;-93
2023/03/18 12:37:18;;;;;;;7.47;6.78;;;20.00;69.90;;;;;;5070351;28;20825;-92
2023/03/18 12:39:51;;;;;;;7.03;6.32;;;20.90;63.90;;;;;;5069715;28;20939;-94
2023/03/18 12:42:18;;;;;;;7.55;6.72;;;21.40;60.70;;;;;;5069531;28;20416;-93
2023/03/18 12:45:08;;;;;;;6.97;6.28;;;21.50;60.50;;;;;;5069492;28;20905;-91